sensor_id;sensor_type;location;lat;lon;timestamp;pressure;altitude;pressure_sealevel;temperature;humidity
7802;BME280;3945;48.952;9.506;2023-09-07T00:00:36;98250.72;;;17.51;80.45
7802;BME280;3945;48.952;9.506;2023-09-07T00:03:03;98244.34;;;17.42;79.69
7802;BME280;3945;48.952;9.506;2023-09-07T00:05:30;98246.53;;;17.35;79.89
7802;BME280;3945;48.952;9.506;2023-09-07T00:07:56;98244.66;;;17.31;80.25
7802;BME280;3945;48.952;9.506;2023-09-07T00:10:24;98242.81;;;17.26;79.20
7802;BME280;3945;48.952;9.506;2023-09-07T00:12:50;98244.94;;;17.24;79.46
7802;BME280;3945;48.952;9.506;2023-09-07T00:15:17;98245.22;;;17.23;79.25
7802;BME280;3945;48.952;9.506;2023-09-07T00:17:45;98247.91;;;17.23;79.42
7802;BME280;3945;48.952;9.506;2023-09-07T00:20:11;98247.38;;;17.26;79.29
7802;BME280;3945;48.952;9.506;2023-09-07T00:22:39;98243.09;;;17.20;79.29
7802;BME280;3945;48.952;9.506;2023-09-07T00:25:05;98239.84;;;17.23;78.43
7802;BME280;3945;48.952;9.506;2023-09-07T00:27:33;98236.34;;;17.27;77.31
7802;BME280;3945;48.952;9.506;2023-09-07T00:30:00;98240.34;;;17.35;77.66
7802;BME280;3945;48.952;9.506;2023-09-07T00:32:26;98236.00;;;17.39;77.17
7802;BME280;3945;48.952;9.506;2023-09-07T00:34:52;98238.66;;;17.44;76.92
7802;BME280;3945;48.952;9.506;2023-09-07T00:37:19;98242.44;;;17.48;76.97
7802;BME280;3945;48.952;9.506;2023-09-07T00:39:45;98237.28;;;17.51;76.33
7802;BME280;3945;48.952;9.506;2023-09-07T00:42:11;98241.31;;;17.54;76.50
7802;BME280;3945;48.952;9.506;2023-09-07T00:44:39;98247.22;;;17.56;76.27
7802;BME280;3945;48.952;9.506;2023-09-07T00:47:05;98246.41;;;17.55;76.58
7802;BME280;3945;48.952;9.506;2023-09-07T00:49:32;98238.88;;;17.58;76.40
7802;BME280;3945;48.952;9.506;2023-09-07T00:51:58;98244.78;;;17.60;76.40
7802;BME280;3945;48.952;9.506;2023-09-07T00:54:24;98248.84;;;17.62;75.96
7802;BME280;3945;48.952;9.506;2023-09-07T00:56:51;98249.34;;;17.69;75.88
7802;BME280;3945;48.952;9.506;2023-09-07T00:59:17;98244.75;;;17.70;77.41
7802;BME280;3945;48.952;9.506;2023-09-07T01:01:45;98244.50;;;17.66;77.79
7802;BME280;3945;48.952;9.506;2023-09-07T01:04:11;98249.91;;;17.56;78.33
7802;BME280;3945;48.952;9.506;2023-09-07T01:06:39;98241.66;;;17.42;78.39
7802;BME280;3945;48.952;9.506;2023-09-07T01:09:10;98244.63;;;17.41;77.49
7802;BME280;3945;48.952;9.506;2023-09-07T01:11:37;98240.28;;;17.45;78.41
7802;BME280;3945;48.952;9.506;2023-09-07T01:14:04;98239.47;;;17.44;78.38
7802;BME280;3945;48.952;9.506;2023-09-07T01:16:30;98240.03;;;17.36;78.81
7802;BME280;3945;48.952;9.506;2023-09-07T01:19:00;98243.88;;;17.25;79.29
7802;BME280;3945;48.952;9.506;2023-09-07T01:21:27;98240.41;;;17.20;79.72
7802;BME280;3945;48.952;9.506;2023-09-07T01:23:55;98236.94;;;17.14;80.04
7802;BME280;3945;48.952;9.506;2023-09-07T01:26:22;98237.75;;;17.09;80.41
7802;BME280;3945;48.952;9.506;2023-09-07T01:28:49;98239.13;;;17.02;81.06
7802;BME280;3945;48.952;9.506;2023-09-07T01:31:15;98239.16;;;16.97;81.07
7802;BME280;3945;48.952;9.506;2023-09-07T01:33:42;98239.97;;;16.92;81.11
7802;BME280;3945;48.952;9.506;2023-09-07T01:36:08;98240.78;;;16.88;81.60
7802;BME280;3945;48.952;9.506;2023-09-07T01:38:35;98238.63;;;16.90;81.71
7802;BME280;3945;48.952;9.506;2023-09-07T01:41:02;98235.94;;;17.00;80.76
7802;BME280;3945;48.952;9.506;2023-09-07T01:43:29;98239.63;;;17.14;80.42
7802;BME280;3945;48.952;9.506;2023-09-07T01:45:55;98240.38;;;17.25;79.88
7802;BME280;3945;48.952;9.506;2023-09-07T01:48:21;98242.50;;;17.33;80.27
7802;BME280;3945;48.952;9.506;2023-09-07T01:50:51;98237.63;;;17.40;79.36
7802;BME280;3945;48.952;9.506;2023-09-07T01:53:17;98235.16;;;17.48;79.18
7802;BME280;3945;48.952;9.506;2023-09-07T01:55:44;98238.59;;;17.59;78.65
7802;BME280;3945;48.952;9.506;2023-09-07T02:01:23;98237.72;;;17.79;77.85
7802;BME280;3945;48.952;9.506;2023-09-07T02:03:50;98241.19;;;17.79;78.53
7802;BME280;3945;48.952;9.506;2023-09-07T02:06:16;98238.53;;;17.74;78.77
7802;BME280;3945;48.952;9.506;2023-09-07T02:08:43;98233.50;;;17.63;78.65
7802;BME280;3945;48.952;9.506;2023-09-07T02:11:09;98237.53;;;17.55;79.58
7802;BME280;3945;48.952;9.506;2023-09-07T02:13:36;98235.19;;;17.38;79.93
7802;BME280;3945;48.952;9.506;2023-09-07T02:16:03;98236.88;;;17.24;80.00
7802;BME280;3945;48.952;9.506;2023-09-07T02:18:31;98237.72;;;17.14;81.06
7802;BME280;3945;48.952;9.506;2023-09-07T02:21:00;98235.06;;;17.09;81.73
7802;BME280;3945;48.952;9.506;2023-09-07T02:23:27;98234.72;;;17.26;80.19
7802;BME280;3945;48.952;9.506;2023-09-07T02:25:53;98238.38;;;17.45;79.53
7802;BME280;3945;48.952;9.506;2023-09-07T02:28:19;98235.63;;;17.61;78.84
7802;BME280;3945;48.952;9.506;2023-09-07T02:30:46;98243.38;;;17.72;78.42
7802;BME280;3945;48.952;9.506;2023-09-07T02:33:12;98239.28;;;17.80;78.07
7802;BME280;3945;48.952;9.506;2023-09-07T02:35:40;98242.25;;;17.83;77.57
7802;BME280;3945;48.952;9.506;2023-09-07T02:38:06;98238.44;;;17.89;77.21
7802;BME280;3945;48.952;9.506;2023-09-07T02:40:33;98236.25;;;17.91;77.77
7802;BME280;3945;48.952;9.506;2023-09-07T02:42:59;98235.47;;;17.91;77.31
7802;BME280;3945;48.952;9.506;2023-09-07T02:45:25;98238.44;;;17.89;77.83
7802;BME280;3945;48.952;9.506;2023-09-07T02:47:51;98233.63;;;17.86;77.87
7802;BME280;3945;48.952;9.506;2023-09-07T02:50:18;98240.63;;;17.82;77.79
7802;BME280;3945;48.952;9.506;2023-09-07T02:52:45;98239.81;;;17.82;77.71
7802;BME280;3945;48.952;9.506;2023-09-07T02:55:12;98235.78;;;17.79;78.00
7802;BME280;3945;48.952;9.506;2023-09-07T02:57:38;98244.47;;;17.71;77.38
7802;BME280;3945;48.952;9.506;2023-09-07T03:00:05;98242.66;;;17.62;77.62
7802;BME280;3945;48.952;9.506;2023-09-07T03:02:34;98235.41;;;17.52;77.50
7802;BME280;3945;48.952;9.506;2023-09-07T03:05:01;98231.44;;;17.39;78.28
7802;BME280;3945;48.952;9.506;2023-09-07T03:07:29;98234.47;;;17.28;78.87
7802;BME280;3945;48.952;9.506;2023-09-07T03:09:57;98230.19;;;17.16;79.37
7802;BME280;3945;48.952;9.506;2023-09-07T03:12:23;98228.06;;;17.08;80.08
7802;BME280;3945;48.952;9.506;2023-09-07T03:14:50;98227.84;;;17.00;80.25
7802;BME280;3945;48.952;9.506;2023-09-07T03:17:16;98222.25;;;16.91;80.45
7802;BME280;3945;48.952;9.506;2023-09-07T03:19:43;98218.22;;;16.84;80.77
7802;BME280;3945;48.952;9.506;2023-09-07T03:22:09;98219.06;;;16.74;81.70
7802;BME280;3945;48.952;9.506;2023-09-07T03:24:35;98213.97;;;16.67;81.96
7802;BME280;3945;48.952;9.506;2023-09-07T03:27:03;98217.16;;;16.59;82.45
7802;BME280;3945;48.952;9.506;2023-09-07T03:29:31;98212.88;;;16.58;82.92
7802;BME280;3945;48.952;9.506;2023-09-07T03:31:58;98222.31;;;16.56;83.51
7802;BME280;3945;48.952;9.506;2023-09-07T03:34:24;98220.41;;;16.51;83.40
7802;BME280;3945;48.952;9.506;2023-09-07T03:36:51;98224.16;;;16.50;84.02
7802;BME280;3945;48.952;9.506;2023-09-07T03:39:17;98224.47;;;16.49;84.63
7802;BME280;3945;48.952;9.506;2023-09-07T03:41:44;98220.44;;;16.61;84.31
7802;BME280;3945;48.952;9.506;2023-09-07T03:44:12;98220.66;;;16.75;83.74
7802;BME280;3945;48.952;9.506;2023-09-07T03:46:38;98216.59;;;16.93;82.87
7802;BME280;3945;48.952;9.506;2023-09-07T03:49:05;98219.19;;;17.08;81.91
7802;BME280;3945;48.952;9.506;2023-09-07T03:51:31;98222.91;;;17.22;80.98
7802;BME280;3945;48.952;9.506;2023-09-07T03:53:58;98228.00;;;17.29;80.84
7802;BME280;3945;48.952;9.506;2023-09-07T03:56:24;98221.50;;;17.30;80.43
7802;BME280;3945;48.952;9.506;2023-09-07T03:58:51;98220.44;;;17.31;80.78
7802;BME280;3945;48.952;9.506;2023-09-07T04:01:18;98221.78;;;17.33;80.19
7802;BME280;3945;48.952;9.506;2023-09-07T04:03:45;98217.75;;;17.36;79.96
7802;BME280;3945;48.952;9.506;2023-09-07T04:06:11;98218.81;;;17.35;80.02
7802;BME280;3945;48.952;9.506;2023-09-07T04:08:37;98217.72;;;17.41;79.84
7802;BME280;3945;48.952;9.506;2023-09-07T04:11:04;98215.03;;;17.41;79.71
7802;BME280;3945;48.952;9.506;2023-09-07T04:13:30;98212.31;;;17.41;79.57
7802;BME280;3945;48.952;9.506;2023-09-07T04:15:57;98215.81;;;17.41;79.46
7802;BME280;3945;48.952;9.506;2023-09-07T04:18:24;98216.63;;;17.42;79.85
7802;BME280;3945;48.952;9.506;2023-09-07T04:20:51;98216.63;;;17.42;79.23
7802;BME280;3945;48.952;9.506;2023-09-07T04:23:17;98220.94;;;17.38;80.46
7802;BME280;3945;48.952;9.506;2023-09-07T04:25:43;98219.63;;;17.35;79.82
7802;BME280;3945;48.952;9.506;2023-09-07T04:28:10;98211.28;;;17.32;79.85
7802;BME280;3945;48.952;9.506;2023-09-07T04:30:37;98208.06;;;17.30;79.93
7802;BME280;3945;48.952;9.506;2023-09-07T04:33:03;98209.69;;;17.31;80.41
7802;BME280;3945;48.952;9.506;2023-09-07T04:35:32;98211.31;;;17.27;79.98
7802;BME280;3945;48.952;9.506;2023-09-07T04:37:58;98210.75;;;17.30;79.84
7802;BME280;3945;48.952;9.506;2023-09-07T04:40:25;98219.41;;;17.27;79.81
7802;BME280;3945;48.952;9.506;2023-09-07T04:42:51;98216.16;;;17.25;80.53
7802;BME280;3945;48.952;9.506;2023-09-07T04:45:17;98217.00;;;17.20;80.18
7802;BME280;3945;48.952;9.506;2023-09-07T04:47:44;98207.59;;;17.17;80.62
7802;BME280;3945;48.952;9.506;2023-09-07T04:50:10;98217.81;;;17.21;80.38
7802;BME280;3945;48.952;9.506;2023-09-07T04:52:38;98216.22;;;17.14;80.51
7802;BME280;3945;48.952;9.506;2023-09-07T04:55:04;98214.06;;;17.16;80.32
7802;BME280;3945;48.952;9.506;2023-09-07T04:57:31;98208.13;;;17.14;80.66
7802;BME280;3945;48.952;9.506;2023-09-07T04:59:57;98219.19;;;17.13;80.40
7802;BME280;3945;48.952;9.506;2023-09-07T05:02:23;98213.50;;;17.14;80.54
7802;BME280;3945;48.952;9.506;2023-09-07T05:04:50;98216.22;;;17.14;80.72
7802;BME280;3945;48.952;9.506;2023-09-07T05:07:17;98221.06;;;17.12;81.09
7802;BME280;3945;48.952;9.506;2023-09-07T05:09:44;98222.97;;;17.12;81.09
7802;BME280;3945;48.952;9.506;2023-09-07T05:12:10;98222.69;;;17.13;81.12
7802;BME280;3945;48.952;9.506;2023-09-07T05:14:39;98228.34;;;17.12;81.23
7802;BME280;3945;48.952;9.506;2023-09-07T05:17:05;98226.75;;;17.06;81.01
7802;BME280;3945;48.952;9.506;2023-09-07T05:19:31;98228.63;;;17.05;81.34
7802;BME280;3945;48.952;9.506;2023-09-07T05:21:59;98233.44;;;17.08;81.22
7802;BME280;3945;48.952;9.506;2023-09-07T05:24:25;98235.31;;;17.08;81.08
7802;BME280;3945;48.952;9.506;2023-09-07T05:26:53;98234.53;;;17.07;81.31
7802;BME280;3945;48.952;9.506;2023-09-07T05:29:19;98246.91;;;17.08;81.12
7802;BME280;3945;48.952;9.506;2023-09-07T05:31:47;98247.69;;;17.09;81.23
7802;BME280;3945;48.952;9.506;2023-09-07T05:34:14;98254.97;;;17.13;81.20
7802;BME280;3945;48.952;9.506;2023-09-07T05:36:40;98250.09;;;17.15;81.00
7802;BME280;3945;48.952;9.506;2023-09-07T05:39:06;98254.41;;;17.16;81.05
7802;BME280;3945;48.952;9.506;2023-09-07T05:41:33;98260.59;;;17.17;80.63
7802;BME280;3945;48.952;9.506;2023-09-07T05:44:00;98255.75;;;17.19;80.87
7802;BME280;3945;48.952;9.506;2023-09-07T05:46:27;98253.84;;;17.20;80.78
7802;BME280;3945;48.952;9.506;2023-09-07T05:48:54;98260.31;;;17.18;81.34
7802;BME280;3945;48.952;9.506;2023-09-07T05:51:20;98254.13;;;17.18;81.05
7802;BME280;3945;48.952;9.506;2023-09-07T05:53:47;98262.19;;;17.18;81.01
7802;BME280;3945;48.952;9.506;2023-09-07T05:56:13;98262.19;;;17.18;81.46
7802;BME280;3945;48.952;9.506;2023-09-07T05:58:39;98262.19;;;17.18;81.61
7802;BME280;3945;48.952;9.506;2023-09-07T06:01:07;98263.53;;;17.21;81.12
7802;BME280;3945;48.952;9.506;2023-09-07T06:03:33;98264.31;;;17.26;81.12
7802;BME280;3945;48.952;9.506;2023-09-07T06:06:00;98264.84;;;17.28;81.42
7802;BME280;3945;48.952;9.506;2023-09-07T06:08:27;98261.34;;;17.33;81.14
7802;BME280;3945;48.952;9.506;2023-09-07T06:10:53;98263.44;;;17.41;81.04
7802;BME280;3945;48.952;9.506;2023-09-07T06:13:20;98262.84;;;17.54;80.22
7802;BME280;3945;48.952;9.506;2023-09-07T06:15:46;98262.03;;;17.64;80.65
7802;BME280;3945;48.952;9.506;2023-09-07T06:18:14;98269.22;;;17.78;79.96
7802;BME280;3945;48.952;9.506;2023-09-07T06:20:40;98268.00;;;17.94;79.95
7802;BME280;3945;48.952;9.506;2023-09-07T06:23:06;98268.38;;;18.17;79.08
7802;BME280;3945;48.952;9.506;2023-09-07T06:25:33;98269.28;;;18.41;78.62
7802;BME280;3945;48.952;9.506;2023-09-07T06:27:59;98268.44;;;18.75;77.38
7802;BME280;3945;48.952;9.506;2023-09-07T06:30:25;98260.75;;;19.10;76.40
7802;BME280;3945;48.952;9.506;2023-09-07T06:32:52;98269.03;;;19.43;75.33
7802;BME280;3945;48.952;9.506;2023-09-07T06:35:20;98265.88;;;19.78;74.20
7802;BME280;3945;48.952;9.506;2023-09-07T06:37:46;98267.25;;;20.13;72.62
7802;BME280;3945;48.952;9.506;2023-09-07T06:40:12;98254.66;;;20.41;70.98
7802;BME280;3945;48.952;9.506;2023-09-07T06:42:40;98261.53;;;20.66;69.92
7802;BME280;3945;48.952;9.506;2023-09-07T06:45:07;98252.13;;;20.91;69.57
7802;BME280;3945;48.952;9.506;2023-09-07T06:47:34;98260.78;;;21.20;69.47
7802;BME280;3945;48.952;9.506;2023-09-07T06:50:01;98265.28;;;21.52;67.86
7802;BME280;3945;48.952;9.506;2023-09-07T06:52:29;98264.63;;;21.83;67.45
7802;BME280;3945;48.952;9.506;2023-09-07T06:54:55;98268.38;;;22.09;66.23
7802;BME280;3945;48.952;9.506;2023-09-07T06:57:21;98270.34;;;22.39;66.56
7802;BME280;3945;48.952;9.506;2023-09-07T06:59:48;98267.06;;;22.73;65.99
7802;BME280;3945;48.952;9.506;2023-09-07T07:02:14;98266.72;;;22.97;62.83
7802;BME280;3945;48.952;9.506;2023-09-07T07:04:40;98259.41;;;23.15;62.93
7802;BME280;3945;48.952;9.506;2023-09-07T07:07:08;98258.56;;;23.45;63.43
7802;BME280;3945;48.952;9.506;2023-09-07T07:09:36;98260.22;;;23.72;61.99
7802;BME280;3945;48.952;9.506;2023-09-07T07:12:03;98265.03;;;24.01;60.88
7802;BME280;3945;48.952;9.506;2023-09-07T07:14:30;98270.53;;;24.27;60.40
7802;BME280;3945;48.952;9.506;2023-09-07T07:16:56;98266.63;;;24.54;59.47
7802;BME280;3945;48.952;9.506;2023-09-07T07:19:22;98264.63;;;24.80;58.69
7802;BME280;3945;48.952;9.506;2023-09-07T07:21:49;98265.38;;;25.06;58.31
7802;BME280;3945;48.952;9.506;2023-09-07T07:24:16;98269.41;;;25.29;57.21
7802;BME280;3945;48.952;9.506;2023-09-07T07:26:44;98268.81;;;25.53;56.55
7802;BME280;3945;48.952;9.506;2023-09-07T07:29:10;98272.81;;;25.64;55.43
7802;BME280;3945;48.952;9.506;2023-09-07T07:31:37;98274.06;;;25.88;57.27
7802;BME280;3945;48.952;9.506;2023-09-07T07:34:03;98269.28;;;26.05;54.92
7802;BME280;3945;48.952;9.506;2023-09-07T07:36:30;98276.06;;;26.20;55.52
7802;BME280;3945;48.952;9.506;2023-09-07T07:38:56;98266.75;;;26.21;52.89
7802;BME280;3945;48.952;9.506;2023-09-07T07:41:22;98274.09;;;26.29;54.45
7802;BME280;3945;48.952;9.506;2023-09-07T07:43:50;98269.34;;;26.38;53.71
7802;BME280;3945;48.952;9.506;2023-09-07T07:46:17;98270.44;;;26.58;52.93
7802;BME280;3945;48.952;9.506;2023-09-07T07:48:44;98277.16;;;26.73;55.51
7802;BME280;3945;48.952;9.506;2023-09-07T07:51:11;98262.44;;;26.86;54.08
7802;BME280;3945;48.952;9.506;2023-09-07T07:53:37;98262.22;;;27.03;54.11
7802;BME280;3945;48.952;9.506;2023-09-07T07:56:03;98257.56;;;26.92;51.66
7802;BME280;3945;48.952;9.506;2023-09-07T07:58:30;98261.44;;;26.91;52.64
7802;BME280;3945;48.952;9.506;2023-09-07T08:00:57;98253.88;;;26.88;53.40
7802;BME280;3945;48.952;9.506;2023-09-07T08:03:24;98254.75;;;26.67;52.20
7802;BME280;3945;48.952;9.506;2023-09-07T08:05:50;98263.75;;;26.68;53.45
7802;BME280;3945;48.952;9.506;2023-09-07T08:08:16;98260.75;;;26.61;53.81
7802;BME280;3945;48.952;9.506;2023-09-07T08:10:44;98254.41;;;26.69;54.04
7802;BME280;3945;48.952;9.506;2023-09-07T08:13:11;98252.41;;;26.78;52.48
7802;BME280;3945;48.952;9.506;2023-09-07T08:15:38;98260.25;;;26.79;52.87
7802;BME280;3945;48.952;9.506;2023-09-07T08:18:06;98255.63;;;26.92;53.76
7802;BME280;3945;48.952;9.506;2023-09-07T08:20:33;98258.59;;;27.11;53.10
7802;BME280;3945;48.952;9.506;2023-09-07T08:23:01;98252.38;;;27.23;53.68
7802;BME280;3945;48.952;9.506;2023-09-07T08:25:30;98246.88;;;27.35;51.69
7802;BME280;3945;48.952;9.506;2023-09-07T08:27:57;98248.56;;;27.52;51.73
7802;BME280;3945;48.952;9.506;2023-09-07T08:30:24;98252.13;;;27.65;52.44
7802;BME280;3945;48.952;9.506;2023-09-07T08:32:51;98245.22;;;27.83;52.13
7802;BME280;3945;48.952;9.506;2023-09-07T08:35:18;98244.75;;;27.93;50.97
7802;BME280;3945;48.952;9.506;2023-09-07T08:37:45;98242.09;;;27.96;50.27
7802;BME280;3945;48.952;9.506;2023-09-07T08:40:11;98248.50;;;28.01;50.20
7802;BME280;3945;48.952;9.506;2023-09-07T08:42:38;98242.78;;;28.06;50.71
7802;BME280;3945;48.952;9.506;2023-09-07T08:45:05;98243.78;;;28.13;51.67
7802;BME280;3945;48.952;9.506;2023-09-07T08:47:34;98252.66;;;28.22;50.25
7802;BME280;3945;48.952;9.506;2023-09-07T08:50:01;98247.06;;;28.31;50.85
7802;BME280;3945;48.952;9.506;2023-09-07T08:52:29;98249.06;;;28.34;50.07
7802;BME280;3945;48.952;9.506;2023-09-07T08:54:56;98248.78;;;28.23;50.26
7802;BME280;3945;48.952;9.506;2023-09-07T08:57:23;98250.66;;;28.35;50.67
7802;BME280;3945;48.952;9.506;2023-09-07T08:59:50;98250.19;;;28.45;50.05
7802;BME280;3945;48.952;9.506;2023-09-07T09:02:17;98248.31;;;28.49;49.41
7802;BME280;3945;48.952;9.506;2023-09-07T09:04:43;98247.25;;;28.54;49.50
7802;BME280;3945;48.952;9.506;2023-09-07T09:07:09;98246.03;;;28.51;48.86
7802;BME280;3945;48.952;9.506;2023-09-07T09:09:37;98249.38;;;28.45;50.40
7802;BME280;3945;48.952;9.506;2023-09-07T09:12:07;98249.81;;;28.47;50.86
7802;BME280;3945;48.952;9.506;2023-09-07T09:14:34;98250.44;;;28.56;50.54
7802;BME280;3945;48.952;9.506;2023-09-07T09:17:02;98249.16;;;28.65;49.33
7802;BME280;3945;48.952;9.506;2023-09-07T09:19:32;98241.66;;;28.78;49.13
7802;BME280;3945;48.952;9.506;2023-09-07T09:21:58;98245.47;;;28.89;48.94
7802;BME280;3945;48.952;9.506;2023-09-07T09:24:24;98246.44;;;28.97;49.20
7802;BME280;3945;48.952;9.506;2023-09-07T09:26:52;98241.59;;;29.06;49.85
7802;BME280;3945;48.952;9.506;2023-09-07T09:29:21;98244.31;;;29.06;47.84
7802;BME280;3945;48.952;9.506;2023-09-07T09:31:47;98242.56;;;29.13;49.33
7802;BME280;3945;48.952;9.506;2023-09-07T09:34:14;98237.59;;;29.19;48.67
7802;BME280;3945;48.952;9.506;2023-09-07T09:36:42;98240.63;;;29.14;48.84
7802;BME280;3945;48.952;9.506;2023-09-07T09:39:08;98231.75;;;29.21;49.69
7802;BME280;3945;48.952;9.506;2023-09-07T09:41:34;98235.56;;;29.32;48.36
7802;BME280;3945;48.952;9.506;2023-09-07T09:44:03;98235.31;;;29.37;47.54
7802;BME280;3945;48.952;9.506;2023-09-07T09:46:31;98234.91;;;29.54;48.78
7802;BME280;3945;48.952;9.506;2023-09-07T09:48:57;98228.44;;;29.62;48.08
7802;BME280;3945;48.952;9.506;2023-09-07T09:51:24;98226.84;;;29.61;46.71
7802;BME280;3945;48.952;9.506;2023-09-07T09:53:51;98219.94;;;29.67;47.23
7802;BME280;3945;48.952;9.506;2023-09-07T09:56:19;98230.41;;;29.81;47.43
7802;BME280;3945;48.952;9.506;2023-09-07T09:58:46;98221.19;;;29.89;47.57
7802;BME280;3945;48.952;9.506;2023-09-07T10:01:14;98218.66;;;30.00;47.36
7802;BME280;3945;48.952;9.506;2023-09-07T10:03:42;98221.56;;;30.07;46.26
7802;BME280;3945;48.952;9.506;2023-09-07T10:06:11;98218.09;;;30.10;46.03
7802;BME280;3945;48.952;9.506;2023-09-07T10:08:39;98229.88;;;30.10;46.63
7802;BME280;3945;48.952;9.506;2023-09-07T10:11:07;98217.56;;;30.04;47.48
7802;BME280;3945;48.952;9.506;2023-09-07T10:13:33;98223.28;;;30.15;47.43
7802;BME280;3945;48.952;9.506;2023-09-07T10:16:00;98229.88;;;30.30;47.71
7802;BME280;3945;48.952;9.506;2023-09-07T10:18:34;98226.09;;;30.38;46.50
7802;BME280;3945;48.952;9.506;2023-09-07T10:21:01;98220.78;;;30.48;46.21
7802;BME280;3945;48.952;9.506;2023-09-07T10:23:35;98224.94;;;30.58;46.19
7802;BME280;3945;48.952;9.506;2023-09-07T10:26:02;98216.69;;;30.58;46.70
7802;BME280;3945;48.952;9.506;2023-09-07T10:28:29;98219.78;;;30.56;47.00
7802;BME280;3945;48.952;9.506;2023-09-07T10:30:59;98228.13;;;30.60;46.55
7802;BME280;3945;48.952;9.506;2023-09-07T10:33:25;98214.72;;;30.58;45.37
7802;BME280;3945;48.952;9.506;2023-09-07T10:35:53;98214.78;;;30.62;46.78
7802;BME280;3945;48.952;9.506;2023-09-07T10:38:19;98213.56;;;30.59;46.77
7802;BME280;3945;48.952;9.506;2023-09-07T10:40:47;98204.53;;;30.59;46.87
7802;BME280;3945;48.952;9.506;2023-09-07T10:43:13;98201.00;;;30.58;46.36
7802;BME280;3945;48.952;9.506;2023-09-07T10:45:43;98205.22;;;30.52;46.24
7802;BME280;3945;48.952;9.506;2023-09-07T10:48:09;98202.94;;;30.58;47.32
7802;BME280;3945;48.952;9.506;2023-09-07T10:50:43;98202.34;;;30.68;49.29
7802;BME280;3945;48.952;9.506;2023-09-07T10:53:11;98201.00;;;30.81;46.62
7802;BME280;3945;48.952;9.506;2023-09-07T10:55:38;98199.88;;;30.86;46.54
7802;BME280;3945;48.952;9.506;2023-09-07T10:58:05;98194.72;;;30.81;46.10
7802;BME280;3945;48.952;9.506;2023-09-07T11:00:31;98188.53;;;30.87;45.98
7802;BME280;3945;48.952;9.506;2023-09-07T11:02:58;98191.41;;;30.94;46.80
7802;BME280;3945;48.952;9.506;2023-09-07T11:05:24;98193.03;;;30.99;46.56
7802;BME280;3945;48.952;9.506;2023-09-07T11:07:51;98188.75;;;31.01;46.76
7802;BME280;3945;48.952;9.506;2023-09-07T11:10:19;98193.00;;;30.95;45.92
7802;BME280;3945;48.952;9.506;2023-09-07T11:12:46;98186.56;;;30.88;46.46
7802;BME280;3945;48.952;9.506;2023-09-07T11:15:13;98185.41;;;30.89;46.57
7802;BME280;3945;48.952;9.506;2023-09-07T11:17:40;98194.47;;;30.89;46.82
7802;BME280;3945;48.952;9.506;2023-09-07T11:20:07;98185.81;;;30.91;47.27
7802;BME280;3945;48.952;9.506;2023-09-07T11:22:35;98187.41;;;30.92;46.21
7802;BME280;3945;48.952;9.506;2023-09-07T11:25:04;98186.25;;;30.93;46.47
7802;BME280;3945;48.952;9.506;2023-09-07T11:27:31;98186.25;;;30.93;45.99
7802;BME280;3945;48.952;9.506;2023-09-07T11:29:58;98182.41;;;30.97;45.69
7802;BME280;3945;48.952;9.506;2023-09-07T11:32:32;98178.81;;;30.93;45.85
7802;BME280;3945;48.952;9.506;2023-09-07T11:34:59;98184.63;;;30.88;46.04
7802;BME280;3945;48.952;9.506;2023-09-07T11:37:25;98173.63;;;30.88;45.95
7802;BME280;3945;48.952;9.506;2023-09-07T11:39:52;98178.00;;;30.93;46.37
7802;BME280;3945;48.952;9.506;2023-09-07T11:42:18;98178.97;;;31.04;47.49
7802;BME280;3945;48.952;9.506;2023-09-07T11:44:46;98181.44;;;31.09;45.71
7802;BME280;3945;48.952;9.506;2023-09-07T11:47:13;98175.44;;;31.03;45.87
7802;BME280;3945;48.952;9.506;2023-09-07T11:49:39;98174.34;;;31.08;46.12
7802;BME280;3945;48.952;9.506;2023-09-07T11:52:06;98173.63;;;31.11;45.40
7802;BME280;3945;48.952;9.506;2023-09-07T11:54:32;98167.34;;;31.11;45.71
7802;BME280;3945;48.952;9.506;2023-09-07T11:56:58;98162.66;;;31.15;45.60
7802;BME280;3945;48.952;9.506;2023-09-07T11:59:25;98170.81;;;31.08;45.71
7802;BME280;3945;48.952;9.506;2023-09-07T12:01:54;98163.00;;;31.10;46.72
7802;BME280;3945;48.952;9.506;2023-09-07T12:04:21;98163.66;;;31.03;46.07
7802;BME280;3945;48.952;9.506;2023-09-07T12:06:47;98162.56;;;31.08;46.13
7802;BME280;3945;48.952;9.506;2023-09-07T12:09:13;98165.66;;;31.06;45.31
7802;BME280;3945;48.952;9.506;2023-09-07T12:11:42;98161.41;;;31.09;45.69
7802;BME280;3945;48.952;9.506;2023-09-07T12:14:08;98155.41;;;31.03;46.62
7802;BME280;3945;48.952;9.506;2023-09-07T12:16:35;98150.81;;;31.11;46.19
7802;BME280;3945;48.952;9.506;2023-09-07T12:19:02;98152.41;;;31.12;45.01
7802;BME280;3945;48.952;9.506;2023-09-07T12:21:29;98148.19;;;31.18;45.65
7802;BME280;3945;48.952;9.506;2023-09-07T12:23:55;98140.06;;;31.28;45.85
7802;BME280;3945;48.952;9.506;2023-09-07T12:26:21;98154.25;;;31.30;45.09
7802;BME280;3945;48.952;9.506;2023-09-07T12:28:48;98147.13;;;31.26;45.04
7802;BME280;3945;48.952;9.506;2023-09-07T12:31:14;98152.63;;;31.26;44.95
7802;BME280;3945;48.952;9.506;2023-09-07T12:33:41;98151.44;;;31.27;44.99
7802;BME280;3945;48.952;9.506;2023-09-07T12:36:09;98147.22;;;31.33;46.17
7802;BME280;3945;48.952;9.506;2023-09-07T12:38:36;98145.66;;;31.35;44.52
7802;BME280;3945;48.952;9.506;2023-09-07T12:41:03;98145.66;;;31.35;43.68
7802;BME280;3945;48.952;9.506;2023-09-07T12:43:29;98140.16;;;31.35;44.44
7802;BME280;3945;48.952;9.506;2023-09-07T12:45:56;98144.94;;;31.38;44.92
7802;BME280;3945;48.952;9.506;2023-09-07T12:48:22;98136.25;;;31.36;44.95
7802;BME280;3945;48.952;9.506;2023-09-07T12:50:48;98139.16;;;31.47;45.32
7802;BME280;3945;48.952;9.506;2023-09-07T12:53:16;98131.81;;;31.58;44.93
7802;BME280;3945;48.952;9.506;2023-09-07T12:55:44;98143.81;;;31.73;43.70
7802;BME280;3945;48.952;9.506;2023-09-07T12:58:10;98139.47;;;31.68;43.96
7802;BME280;3945;48.952;9.506;2023-09-07T13:00:37;98132.03;;;31.72;45.08
7802;BME280;3945;48.952;9.506;2023-09-07T13:03:04;98136.41;;;31.77;44.37
7802;BME280;3945;48.952;9.506;2023-09-07T13:05:30;98139.03;;;31.66;42.81
7802;BME280;3945;48.952;9.506;2023-09-07T13:07:57;98135.94;;;31.71;43.80
7802;BME280;3945;48.952;9.506;2023-09-07T13:10:25;98134.31;;;31.67;42.29
7802;BME280;3945;48.952;9.506;2023-09-07T13:12:53;98134.84;;;31.76;43.55
7802;BME280;3945;48.952;9.506;2023-09-07T13:15:19;98127.75;;;31.78;42.88
7802;BME280;3945;48.952;9.506;2023-09-07T13:17:45;98132.38;;;31.71;43.12
7802;BME280;3945;48.952;9.506;2023-09-07T13:20:12;98131.56;;;31.67;43.24
7802;BME280;3945;48.952;9.506;2023-09-07T13:22:38;98120.91;;;31.62;42.55